<?xml version="1.0" encoding="UTF-8" standalone="no" ?>
<gpx xmlns="http://www.topografix.com/GPX/1/1" xmlns:xsi="http://www.w3.org/2001/XMLSchema-instance" xsi:schemaLocation="http://www.topografix.com/GPX/1/1 http://www.topografix.com/GPX/1/1/gpx.xsd" version="1.1" creator="VisuGPX - https://www.visugpx.com">
  <metadata>
    <name>StMaloDuBois_9.4km</name>
    <desc><![CDATA[gnerando idor:7847540]]></desc>
  </metadata>
  <trk>
    <name><![CDATA[SMaloBois_9.4km-7847540]]></name>
    <extensions>
      <line xmlns="http://www.topografix.com/GPX/gpx_style/0/2">
        <color>0000FF</color>
        <width>4</width>
      </line>
    </extensions>
    <trkseg>
      <trkpt lat="46.92195" lon="-0.8744">
        <ele>133</ele>
        <time>2023-11-05T12:18:47Z</time>
      </trkpt>
      <trkpt lat="46.926" lon="-0.87401">
        <ele>132</ele>
        <time>2023-11-05T12:27:49Z</time>
      </trkpt>
      <trkpt lat="46.92755" lon="-0.87311">
        <ele>126</ele>
        <time>2023-11-05T12:31:31Z</time>
      </trkpt>
      <trkpt lat="46.92831" lon="-0.87332">
        <ele>126</ele>
        <time>2023-11-05T12:33:14Z</time>
      </trkpt>
      <trkpt lat="46.92922" lon="-0.87144">
        <ele>131</ele>
        <time>2023-11-05T12:36:44Z</time>
      </trkpt>
      <trkpt lat="46.92887" lon="-0.86985">
        <ele>127</ele>
        <time>2023-11-05T12:39:17Z</time>
      </trkpt>
      <trkpt lat="46.92946" lon="-0.8689">
        <ele>128</ele>
        <time>2023-11-05T12:41:14Z</time>
      </trkpt>
      <trkpt lat="46.93265" lon="-0.86963">
        <ele>120</ele>
        <time>2023-11-05T12:48:24Z</time>
      </trkpt>
      <trkpt lat="46.93338" lon="-0.87195">
        <ele>131</ele>
        <time>2023-11-05T12:52:17Z</time>
      </trkpt>
      <trkpt lat="46.93376" lon="-0.87234">
        <ele>133</ele>
        <time>2023-11-05T12:53:19Z</time>
      </trkpt>
      <trkpt lat="46.93365" lon="-0.87371">
        <ele>136</ele>
        <time>2023-11-05T12:55:25Z</time>
      </trkpt>
      <trkpt lat="46.93552" lon="-0.87453">
        <ele>137</ele>
        <time>2023-11-05T12:59:45Z</time>
      </trkpt>
      <trkpt lat="46.93353" lon="-0.8756">
        <ele>136</ele>
        <time>2023-11-05T13:04:28Z</time>
      </trkpt>
      <trkpt lat="46.93291" lon="-0.87607">
        <ele>139</ele>
        <time>2023-11-05T13:06:01Z</time>
      </trkpt>
      <trkpt lat="46.9323" lon="-0.87598">
        <ele>140</ele>
        <time>2023-11-05T13:07:23Z</time>
      </trkpt>
      <trkpt lat="46.93051" lon="-0.87839">
        <ele>148</ele>
        <time>2023-11-05T13:12:48Z</time>
      </trkpt>
      <trkpt lat="46.9311" lon="-0.88174">
        <ele>158</ele>
        <time>2023-11-05T13:18:03Z</time>
      </trkpt>
      <trkpt lat="46.93092" lon="-0.88581">
        <ele>171</ele>
        <time>2023-11-05T13:24:15Z</time>
      </trkpt>
      <trkpt lat="46.93034" lon="-0.8904">
        <ele>183</ele>
        <time>2023-11-05T13:31:20Z</time>
      </trkpt>
      <trkpt lat="46.93113" lon="-0.89448">
        <ele>186</ele>
        <time>2023-11-05T13:37:46Z</time>
      </trkpt>
      <trkpt lat="46.93142" lon="-0.90066">
        <ele>195</ele>
        <time>2023-11-05T13:47:11Z</time>
      </trkpt>
      <trkpt lat="46.93163" lon="-0.90422">
        <ele>197</ele>
        <time>2023-11-05T13:52:37Z</time>
      </trkpt>
      <trkpt lat="46.93075" lon="-0.90753">
        <ele>199</ele>
        <time>2023-11-05T13:58:00Z</time>
      </trkpt>
      <trkpt lat="46.9282" lon="-0.90405">
        <ele>194</ele>
        <time>2023-11-05T14:05:45Z</time>
      </trkpt>
      <trkpt lat="46.92799" lon="-0.90328">
        <ele>191</ele>
        <time>2023-11-05T14:07:01Z</time>
      </trkpt>
      <trkpt lat="46.92869" lon="-0.9013">
        <ele>195</ele>
        <time>2023-11-05T14:10:24Z</time>
      </trkpt>
      <trkpt lat="46.92864" lon="-0.89993">
        <ele>194</ele>
        <time>2023-11-05T14:12:29Z</time>
      </trkpt>
      <trkpt lat="46.92931" lon="-0.90002">
        <ele>195</ele>
        <time>2023-11-05T14:13:59Z</time>
      </trkpt>
      <trkpt lat="46.92957" lon="-0.89946">
        <ele>194</ele>
        <time>2023-11-05T14:15:01Z</time>
      </trkpt>
      <trkpt lat="46.92858" lon="-0.89697">
        <ele>183</ele>
        <time>2023-11-05T14:19:23Z</time>
      </trkpt>
      <trkpt lat="46.9294" lon="-0.89508">
        <ele>178</ele>
        <time>2023-11-05T14:22:47Z</time>
      </trkpt>
      <trkpt lat="46.92916" lon="-0.89289">
        <ele>176</ele>
        <time>2023-11-05T14:26:09Z</time>
      </trkpt>
      <trkpt lat="46.92864" lon="-0.89328">
        <ele>176</ele>
        <time>2023-11-05T14:27:27Z</time>
      </trkpt>
      <trkpt lat="46.92905" lon="-0.89504">
        <ele>177</ele>
        <time>2023-11-05T14:30:17Z</time>
      </trkpt>
      <trkpt lat="46.92837" lon="-0.89457">
        <ele>178</ele>
        <time>2023-11-05T14:31:57Z</time>
      </trkpt>
      <trkpt lat="46.92787" lon="-0.89538">
        <ele>180</ele>
        <time>2023-11-05T14:33:37Z</time>
      </trkpt>
      <trkpt lat="46.92582" lon="-0.8965">
        <ele>183</ele>
        <time>2023-11-05T14:38:29Z</time>
      </trkpt>
      <trkpt lat="46.92553" lon="-0.89096">
        <ele>174</ele>
        <time>2023-11-05T14:46:55Z</time>
      </trkpt>
      <trkpt lat="46.92579" lon="-0.8877">
        <ele>176</ele>
        <time>2023-11-05T14:51:54Z</time>
      </trkpt>
      <trkpt lat="46.925" lon="-0.885">
        <ele>173</ele>
        <time>2023-11-05T14:56:22Z</time>
      </trkpt>
      <trkpt lat="46.92488" lon="-0.88272">
        <ele>166</ele>
        <time>2023-11-05T14:59:50Z</time>
      </trkpt>
      <trkpt lat="46.92266" lon="-0.87972">
        <ele>152</ele>
        <time>2023-11-05T15:06:33Z</time>
      </trkpt>
      <trkpt lat="46.92192" lon="-0.87839">
        <ele>152</ele>
        <time>2023-11-05T15:09:10Z</time>
      </trkpt>
      <trkpt lat="46.9209" lon="-0.87826">
        <ele>152</ele>
        <time>2023-11-05T15:11:26Z</time>
      </trkpt>
      <trkpt lat="46.92005" lon="-0.87856">
        <ele>144</ele>
        <time>2023-11-05T15:13:23Z</time>
      </trkpt>
      <trkpt lat="46.91943" lon="-0.87796">
        <ele>143</ele>
        <time>2023-11-05T15:15:02Z</time>
      </trkpt>
      <trkpt lat="46.92034" lon="-0.87577">
        <ele>136</ele>
        <time>2023-11-05T15:18:56Z</time>
      </trkpt>
      <trkpt lat="46.92008" lon="-0.8747">
        <ele>131</ele>
        <time>2023-11-05T15:20:39Z</time>
      </trkpt>
      <trkpt lat="46.92099" lon="-0.87405">
        <ele>130</ele>
        <time>2023-11-05T15:22:55Z</time>
      </trkpt>
      <trkpt lat="46.92195" lon="-0.87431">
        <ele>131</ele>
        <time>2023-11-05T15:25:05Z</time>
      </trkpt>
    </trkseg>
  </trk>
</gpx>